Costa Mediterranea — IBCF — position and weather

sailwx.info

Track history (hours):
 
Tides and Currents Weather Stations Pressure Air Temp Water Temp Dewpoint Dewpoint Depression Visibility Wind Speed Wind Dir Waves Ship Positions

Costa Mediterranea

Last reported at 2017-Nov-23 05:56 UTC. Time now 2017-Nov-23 20:50 UTC.
Position N 41°18' E 002°11'.

Length 293 m; draft 8 m.

Type: Passenger vessel. MMSI: 247088200.

Date/timePositionNaut miles runAvg speedWind from/ knotsBaromVisibWave heightAir tempDewpointWater temp
2017-Nov-23 05:56N 41°18' E 002°11'512.3
2017-Nov-23 05:29N 41°13' E 002°09'715.1
2017-Nov-23 05:00N 41°07' E 002°04'815.4
2017-Nov-23 04:30N 41°00' E 001°59'815.1
2017-Nov-23 04:00N 40°54' E 001°54'  
2017-Nov-20 00:30N 38°43' W 009°07'0 0.0
2017-Nov-20 00:00N 38°43' W 009°07'0 0.0
2017-Nov-19 23:30N 38°43' W 009°07'0 0.0
2017-Nov-19 23:00N 38°43' W 009°07'0 0.0
2017-Nov-19 22:30N 38°43' W 009°07'0 0.0
2017-Nov-19 21:59N 38°43' W 009°07'0 0.0
2017-Nov-19 21:29N 38°43' W 009°07'0 0.0
2017-Nov-19 21:00N 38°43' W 009°07'0 0.0
2017-Nov-19 20:30N 38°43' W 009°07'0 0.0
2017-Nov-19 19:58N 38°43' W 009°07'0 0.0
2017-Nov-19 19:30N 38°43' W 009°07'0 0.0
2017-Nov-19 19:00N 38°43' W 009°07'0 0.0
2017-Nov-19 18:28N 38°43' W 009°07'0 0.0
2017-Nov-19 17:58N 38°43' W 009°07'0 0.0
2017-Nov-19 17:28N 38°43' W 009°07'0 0.0
2017-Nov-19 17:00N 38°43' W 009°07'0 0.0
2017-Nov-19 16:30N 38°43' W 009°07'0 0.0
2017-Nov-19 16:00N 38°43' W 009°07'0 0.0
2017-Nov-19 15:26N 38°43' W 009°07'0 0.0
2017-Nov-19 14:17N 38°43' W 009°07'0 0.0
2017-Nov-19 13:43N 38°43' W 009°07'0 0.0
2017-Nov-19 13:24N 38°43' W 009°07'0 0.0
2017-Nov-19 13:00N 38°43' W 009°07'0 0.0
2017-Nov-19 12:29N 38°43' W 009°07'0 0.0
2017-Nov-19 11:57N 38°43' W 009°07'0 0.0
2017-Nov-19 11:27N 38°43' W 009°07'0 0.0
2017-Nov-19 10:59N 38°43' W 009°07'0 0.0
2017-Nov-19 10:28N 38°43' W 009°07'0 0.0
2017-Nov-19 10:00N 38°43' W 009°07'0 0.0
2017-Nov-19 09:25N 38°43' W 009°07'0 0.0
2017-Nov-19 08:58N 38°43' W 009°07'0 0.4
2017-Nov-19 08:30N 38°43' W 009°07'5 9.1
2017-Nov-19 08:00N 38°41' W 009°13'510.4
2017-Nov-19 07:30N 38°40' W 009°19'714.6
2017-Nov-19 07:01N 38°34' W 009°25'917.0
2017-Nov-19 06:30N 38°25' W 009°25'918.3
2017-Nov-19 06:00N 38°16' W 009°25'918.6
2017-Nov-19 05:31N 38°07' W 009°25'918.9
2017-Nov-19 05:01N 37°58' W 009°25'919.0
2017-Nov-19 04:31N 37°48' W 009°26'1018.8
2017-Nov-19 04:00N 37°39' W 009°26'918.6
2017-Nov-19 03:31N 37°30' W 009°23'918.5
2017-Nov-19 03:01N 37°20' W 009°23'918.6
2017-Nov-19 02:31N 37°11' W 009°22'1018.7
2017-Nov-19 01:59N 37°01' W 009°22'919.0
2017-Nov-19 01:29N 36°52' W 009°19'1019.0
2017-Nov-19 00:58N 36°45' W 009°10'818.7
2017-Nov-19 00:31N 36°42' W 009°00'919.0
2017-Nov-19 00:01N 36°42' W 008°48'918.9
2017-Nov-18 23:31N 36°41' W 008°37'919.0
2017-Nov-18 23:01N 36°40' W 008°25'918.7
2017-Nov-18 22:30N 36°39' W 008°13'1318.7
2017-Nov-18 21:50N 36°38' W 007°57'618.5
2017-Nov-18 21:30N 36°37' W 007°50'1218.6
2017-Nov-18 20:51N 36°36' W 007°35'103 4.9
2017-Nov-17 23:45N 35°58' W 005°37'414.3
2017-Nov-17 23:30N 35°59' W 005°32'713.5
2017-Nov-17 23:00N 36°00' W 005°24'613.0
2017-Nov-17 22:30N 36°02' W 005°17'612.4
2017-Nov-17 22:00N 36°05' W 005°10'217 7.9
2017-Nov-16 18:34N 37°18' W 000°55'718.0
2017-Nov-16 18:10N 37°23' W 000°48'317.7
2017-Nov-16 17:58N 37°26' W 000°45'917.6
2017-Nov-16 17:29N 37°32' W 000°37'817.6
2017-Nov-16 17:00N 37°38' W 000°30'917.7
2017-Nov-16 16:30N 37°45' W 000°24'41117.7
2017-Nov-15 17:16N 43°10' E 005°07'518.6
2017-Nov-15 17:00N 43°14' E 005°11'816.6
2017-Nov-15 16:31N 43°20' E 005°18'2 2.0
2017-Nov-15 15:44N 43°21' E 005°20'0 0.0
2017-Nov-15 13:20N 43°21' E 005°20'0 0.0
2017-Nov-15 11:50N 43°21' E 005°20'0 0.0
2017-Nov-15 10:20N 43°21' E 005°20'0 0.0
2017-Nov-15 09:41N 43°21' E 005°20'0 0.0
2017-Nov-15 08:01N 43°21' E 005°20'0 0.0
2017-Nov-15 07:59N 43°21' E 005°20'1 2.0
2017-Nov-15 07:26N 43°21' E 005°19'4 9.3
2017-Nov-15 06:58N 43°19' E 005°14'612.7
2017-Nov-15 06:29N 43°13' E 005°11'8213.7
2017-Nov-15 00:29N 43°05' E 007°03'1018.7
2017-Nov-14 23:56N 43°12' E 007°14'818.6
2017-Nov-14 23:30N 43°17' E 007°22'1018.5
2017-Nov-14 22:57N 43°24' E 007°33'3818.8
2017-Nov-14 20:55N 43°50' E 008°12'819.0
2017-Nov-14 20:31N 43°55' E 008°20'1019.1
2017-Nov-14 20:01N 44°01' E 008°30'1019.1
2017-Nov-14 19:31N 44°07' E 008°40'1019.2
2017-Nov-14 19:01N 44°14' E 008°50'917.3
2017-Nov-14 18:31N 44°20' E 008°57'4 7.7
2017-Nov-14 18:00N 44°24' E 008°55'1 1.7
2017-Nov-14 17:30N 44°25' E 008°55'0 0.0
2017-Nov-14 16:53N 44°25' E 008°55'0 0.0
2017-Nov-14 16:28N 44°25' E 008°55'0 0.0
2017-Nov-14 15:58N 44°25' E 008°55'0 0.0
2017-Nov-14 15:28N 44°25' E 008°55'0 0.0
2017-Nov-14 14:58N 44°25' E 008°55'0 0.0
2017-Nov-14 14:28N 44°25' E 008°55'0 0.0
2017-Nov-14 13:58N 44°25' E 008°55'0 0.0
2017-Nov-14 13:27N 44°25' E 008°55'0 0.0
2017-Nov-14 12:54N 44°25' E 008°55'0 0.0
2017-Nov-14 12:30N 44°25' E 008°55'0 0.0
2017-Nov-14 11:57N 44°25' E 008°55'0 0.0
2017-Nov-14 11:30N 44°25' E 008°55'0 0.0
2017-Nov-14 11:00N 44°25' E 008°55'0 0.0
2017-Nov-14 10:30N 44°25' E 008°55'0 0.0
2017-Nov-14 10:00N 44°25' E 008°55'0 0.0
2017-Nov-14 09:30N 44°25' E 008°55'0 0.0
2017-Nov-14 09:00N 44°25' E 008°55'0 0.0
2017-Nov-14 08:30N 44°25' E 008°55'2 4.0
2017-Nov-14 08:00N 44°23' E 008°57'611.8
2017-Nov-14 07:30N 44°17' E 008°57'1020.4
2017-Nov-14 07:00N 44°11' E 008°45'1020.1
2017-Nov-14 06:30N 44°05' E 008°34'1020.0
2017-Nov-14 06:00N 43°58' E 008°23'4619.5
2017-Nov-14 03:38N 43°28' E 007°35'319.9
2017-Nov-14 03:30N 43°26' E 007°32'1019.8
2017-Nov-14 03:00N 43°20' E 007°22'1019.5
2017-Nov-14 02:29N 43°13' E 007°12'  
Track history (hours):
 
Tides and Currents Weather Stations Pressure Air Temp Water Temp Dewpoint Dewpoint Depression Visibility Wind Speed Wind Dir Waves Ship Positions

Costa Mediterranea

Last reported at 2017-Nov-23 05:56 UTC. Time now 2017-Nov-23 20:50 UTC.
Position N 41°18' E 002°11'.

Length 293 m; draft 8 m.

Type: Passenger vessel. MMSI: 247088200.

Date/timePositionNaut miles runAvg speedWind from/ knotsBaromVisibWave heightAir tempDewpointWater temp
2017-Nov-23 05:56N 41°18' E 002°11'512.3
2017-Nov-23 05:29N 41°13' E 002°09'715.1
2017-Nov-23 05:00N 41°07' E 002°04'815.4
2017-Nov-23 04:30N 41°00' E 001°59'815.1
2017-Nov-23 04:00N 40°54' E 001°54'  
2017-Nov-20 00:30N 38°43' W 009°07'0 0.0
2017-Nov-20 00:00N 38°43' W 009°07'0 0.0
2017-Nov-19 23:30N 38°43' W 009°07'0 0.0
2017-Nov-19 23:00N 38°43' W 009°07'0 0.0
2017-Nov-19 22:30N 38°43' W 009°07'0 0.0
2017-Nov-19 21:59N 38°43' W 009°07'0 0.0
2017-Nov-19 21:29N 38°43' W 009°07'0 0.0
2017-Nov-19 21:00N 38°43' W 009°07'0 0.0
2017-Nov-19 20:30N 38°43' W 009°07'0 0.0
2017-Nov-19 19:58N 38°43' W 009°07'0 0.0
2017-Nov-19 19:30N 38°43' W 009°07'0 0.0
2017-Nov-19 19:00N 38°43' W 009°07'0 0.0
2017-Nov-19 18:28N 38°43' W 009°07'0 0.0
2017-Nov-19 17:58N 38°43' W 009°07'0 0.0
2017-Nov-19 17:28N 38°43' W 009°07'0 0.0
2017-Nov-19 17:00N 38°43' W 009°07'0 0.0
2017-Nov-19 16:30N 38°43' W 009°07'0 0.0
2017-Nov-19 16:00N 38°43' W 009°07'0 0.0
2017-Nov-19 15:26N 38°43' W 009°07'0 0.0
2017-Nov-19 14:17N 38°43' W 009°07'0 0.0
2017-Nov-19 13:43N 38°43' W 009°07'0 0.0
2017-Nov-19 13:24N 38°43' W 009°07'0 0.0
2017-Nov-19 13:00N 38°43' W 009°07'0 0.0
2017-Nov-19 12:29N 38°43' W 009°07'0 0.0
2017-Nov-19 11:57N 38°43' W 009°07'0 0.0
2017-Nov-19 11:27N 38°43' W 009°07'0 0.0
2017-Nov-19 10:59N 38°43' W 009°07'0 0.0
2017-Nov-19 10:28N 38°43' W 009°07'0 0.0
2017-Nov-19 10:00N 38°43' W 009°07'0 0.0
2017-Nov-19 09:25N 38°43' W 009°07'0 0.0
2017-Nov-19 08:58N 38°43' W 009°07'0 0.4
2017-Nov-19 08:30N 38°43' W 009°07'5 9.1
2017-Nov-19 08:00N 38°41' W 009°13'510.4
2017-Nov-19 07:30N 38°40' W 009°19'714.6
2017-Nov-19 07:01N 38°34' W 009°25'917.0
2017-Nov-19 06:30N 38°25' W 009°25'918.3
2017-Nov-19 06:00N 38°16' W 009°25'918.6
2017-Nov-19 05:31N 38°07' W 009°25'918.9
2017-Nov-19 05:01N 37°58' W 009°25'919.0
2017-Nov-19 04:31N 37°48' W 009°26'1018.8
2017-Nov-19 04:00N 37°39' W 009°26'918.6
2017-Nov-19 03:31N 37°30' W 009°23'918.5
2017-Nov-19 03:01N 37°20' W 009°23'918.6
2017-Nov-19 02:31N 37°11' W 009°22'1018.7
2017-Nov-19 01:59N 37°01' W 009°22'919.0
2017-Nov-19 01:29N 36°52' W 009°19'1019.0
2017-Nov-19 00:58N 36°45' W 009°10'818.7
2017-Nov-19 00:31N 36°42' W 009°00'919.0
2017-Nov-19 00:01N 36°42' W 008°48'918.9
2017-Nov-18 23:31N 36°41' W 008°37'919.0
2017-Nov-18 23:01N 36°40' W 008°25'918.7
2017-Nov-18 22:30N 36°39' W 008°13'1318.7
2017-Nov-18 21:50N 36°38' W 007°57'618.5
2017-Nov-18 21:30N 36°37' W 007°50'1218.6
2017-Nov-18 20:51N 36°36' W 007°35'103 4.9
2017-Nov-17 23:45N 35°58' W 005°37'414.3
2017-Nov-17 23:30N 35°59' W 005°32'713.5
2017-Nov-17 23:00N 36°00' W 005°24'613.0
2017-Nov-17 22:30N 36°02' W 005°17'612.4
2017-Nov-17 22:00N 36°05' W 005°10'217 7.9
2017-Nov-16 18:34N 37°18' W 000°55'718.0
2017-Nov-16 18:10N 37°23' W 000°48'317.7
2017-Nov-16 17:58N 37°26' W 000°45'917.6
2017-Nov-16 17:29N 37°32' W 000°37'817.6
2017-Nov-16 17:00N 37°38' W 000°30'917.7
2017-Nov-16 16:30N 37°45' W 000°24'41117.7
2017-Nov-15 17:16N 43°10' E 005°07'518.6
2017-Nov-15 17:00N 43°14' E 005°11'816.6
2017-Nov-15 16:31N 43°20' E 005°18'2 2.0
2017-Nov-15 15:44N 43°21' E 005°20'0 0.0
2017-Nov-15 13:20N 43°21' E 005°20'0 0.0
2017-Nov-15 11:50N 43°21' E 005°20'0 0.0
2017-Nov-15 10:20N 43°21' E 005°20'0 0.0
2017-Nov-15 09:41N 43°21' E 005°20'0 0.0
2017-Nov-15 08:01N 43°21' E 005°20'0 0.0
2017-Nov-15 07:59N 43°21' E 005°20'1 2.0
2017-Nov-15 07:26N 43°21' E 005°19'4 9.3
2017-Nov-15 06:58N 43°19' E 005°14'612.7
2017-Nov-15 06:29N 43°13' E 005°11'8213.7
2017-Nov-15 00:29N 43°05' E 007°03'1018.7
2017-Nov-14 23:56N 43°12' E 007°14'818.6
2017-Nov-14 23:30N 43°17' E 007°22'1018.5
2017-Nov-14 22:57N 43°24' E 007°33'3818.8
2017-Nov-14 20:55N 43°50' E 008°12'819.0
2017-Nov-14 20:31N 43°55' E 008°20'1019.1
2017-Nov-14 20:01N 44°01' E 008°30'1019.1
2017-Nov-14 19:31N 44°07' E 008°40'1019.2
2017-Nov-14 19:01N 44°14' E 008°50'917.3
2017-Nov-14 18:31N 44°20' E 008°57'4 7.7
2017-Nov-14 18:00N 44°24' E 008°55'1 1.7
2017-Nov-14 17:30N 44°25' E 008°55'0 0.0
2017-Nov-14 16:53N 44°25' E 008°55'0 0.0
2017-Nov-14 16:28N 44°25' E 008°55'0 0.0
2017-Nov-14 15:58N 44°25' E 008°55'0 0.0
2017-Nov-14 15:28N 44°25' E 008°55'0 0.0
2017-Nov-14 14:58N 44°25' E 008°55'0 0.0
2017-Nov-14 14:28N 44°25' E 008°55'0 0.0
2017-Nov-14 13:58N 44°25' E 008°55'0 0.0
2017-Nov-14 13:27N 44°25' E 008°55'0 0.0
2017-Nov-14 12:54N 44°25' E 008°55'0 0.0
2017-Nov-14 12:30N 44°25' E 008°55'0 0.0
2017-Nov-14 11:57N 44°25' E 008°55'0 0.0
2017-Nov-14 11:30N 44°25' E 008°55'0 0.0
2017-Nov-14 11:00N 44°25' E 008°55'0 0.0
2017-Nov-14 10:30N 44°25' E 008°55'0 0.0
2017-Nov-14 10:00N 44°25' E 008°55'0 0.0
2017-Nov-14 09:30N 44°25' E 008°55'0 0.0
2017-Nov-14 09:00N 44°25' E 008°55'0 0.0
2017-Nov-14 08:30N 44°25' E 008°55'2 4.0
2017-Nov-14 08:00N 44°23' E 008°57'611.8
2017-Nov-14 07:30N 44°17' E 008°57'1020.4
2017-Nov-14 07:00N 44°11' E 008°45'1020.1
2017-Nov-14 06:30N 44°05' E 008°34'1020.0
2017-Nov-14 06:00N 43°58' E 008°23'4619.5
2017-Nov-14 03:38N 43°28' E 007°35'319.9
2017-Nov-14 03:30N 43°26' E 007°32'1019.8
2017-Nov-14 03:00N 43°20' E 007°22'1019.5
2017-Nov-14 02:29N 43°13' E 007°12'  

Dump ship's entire track history